Terminal Aerodrome Forecast
Issued by NWS Duluth, MN

Home | Current Version | Previous Version | Text Only | Print | Product List | Glossary On
Versions: 1 2 3 4 5 6 7 8 9 10 11 12 13 14 15 16 17 18 19 20 21 22
000
FTUS43 KDLH 171100
TAFINL
TAF
KINL 171120Z 1712/1812 VRB03KT P6SM SKC
     FM171700 25013G23KT P6SM SKC
     FM172100 29016G30KT P6SM SKC
     FM180100 35010KT P6SM SKC
     FM180600 06004KT P6SM SKC=

USA.gov is the U.S. government's official web portal to all federal, state and local government web resources and services.